sensor_id;sensor_type;location;lat;lon;timestamp;P1;durP1;ratioP1;P2;durP2;ratioP2
43771;SDS011;59066;54.782;32.024;2023-08-30T00:02:16;6.85;;;5.78;;
43771;SDS011;59066;54.782;32.024;2023-08-30T00:04:43;8.25;;;5.78;;
43771;SDS011;59066;54.782;32.024;2023-08-30T00:07:11;7.43;;;6.35;;
43771;SDS011;59066;54.782;32.024;2023-08-30T00:09:38;8.75;;;6.78;;
43771;SDS011;59066;54.782;32.024;2023-08-30T00:12:06;9.40;;;7.05;;
43771;SDS011;59066;54.782;32.024;2023-08-30T00:14:33;9.25;;;6.35;;
43771;SDS011;59066;54.782;32.024;2023-08-30T00:17:01;9.48;;;6.55;;
43771;SDS011;59066;54.782;32.024;2023-08-30T00:19:29;8.13;;;6.97;;
43771;SDS011;59066;54.782;32.024;2023-08-30T00:21:57;9.43;;;6.75;;
43771;SDS011;59066;54.782;32.024;2023-08-30T00:24:24;9.38;;;6.80;;
43771;SDS011;59066;54.782;32.024;2023-08-30T00:26:52;8.43;;;6.80;;
43771;SDS011;59066;54.782;32.024;2023-08-30T00:29:19;11.43;;;7.43;;
43771;SDS011;59066;54.782;32.024;2023-08-30T00:31:47;8.43;;;7.05;;
43771;SDS011;59066;54.782;32.024;2023-08-30T00:34:14;9.93;;;8.27;;
43771;SDS011;59066;54.782;32.024;2023-08-30T00:36:41;9.07;;;7.63;;
43771;SDS011;59066;54.782;32.024;2023-08-30T00:39:09;9.55;;;7.97;;
43771;SDS011;59066;54.782;32.024;2023-08-30T00:41:36;11.68;;;8.18;;
43771;SDS011;59066;54.782;32.024;2023-08-30T00:44:04;11.85;;;9.18;;
43771;SDS011;59066;54.782;32.024;2023-08-30T00:46:32;16.35;;;10.10;;
43771;SDS011;59066;54.782;32.024;2023-08-30T00:49:00;11.50;;;9.32;;
43771;SDS011;59066;54.782;32.024;2023-08-30T00:51:28;13.32;;;10.38;;
43771;SDS011;59066;54.782;32.024;2023-08-30T00:53:56;15.32;;;11.43;;
43771;SDS011;59066;54.782;32.024;2023-08-30T00:56:29;17.15;;;11.60;;
43771;SDS011;59066;54.782;32.024;2023-08-30T00:58:57;15.70;;;11.68;;
43771;SDS011;59066;54.782;32.024;2023-08-30T01:01:25;14.75;;;11.90;;
43771;SDS011;59066;54.782;32.024;2023-08-30T01:03:53;19.00;;;13.00;;
43771;SDS011;59066;54.782;32.024;2023-08-30T01:06:21;13.60;;;11.50;;
43771;SDS011;59066;54.782;32.024;2023-08-30T01:08:49;17.05;;;12.45;;
43771;SDS011;59066;54.782;32.024;2023-08-30T01:11:22;15.65;;;12.75;;
43771;SDS011;59066;54.782;32.024;2023-08-30T01:16:37;19.02;;;14.52;;
43771;SDS011;59066;54.782;32.024;2023-08-30T01:19:09;17.63;;;14.90;;
43771;SDS011;59066;54.782;32.024;2023-08-30T01:21:52;17.80;;;15.00;;
43771;SDS011;59066;54.782;32.024;2023-08-30T01:24:28;18.50;;;14.55;;
43771;SDS011;59066;54.782;32.024;2023-08-30T01:27:08;19.15;;;14.85;;
43771;SDS011;59066;54.782;32.024;2023-08-30T01:29:38;20.02;;;16.00;;
43771;SDS011;59066;54.782;32.024;2023-08-30T01:32:09;24.33;;;16.17;;
43771;SDS011;59066;54.782;32.024;2023-08-30T01:34:37;20.92;;;16.23;;
43771;SDS011;59066;54.782;32.024;2023-08-30T01:37:06;27.85;;;17.33;;
43771;SDS011;59066;54.782;32.024;2023-08-30T01:39:37;22.85;;;16.00;;
43771;SDS011;59066;54.782;32.024;2023-08-30T01:42:07;21.55;;;14.68;;
43771;SDS011;59066;54.782;32.024;2023-08-30T01:44:36;19.15;;;15.70;;
43771;SDS011;59066;54.782;32.024;2023-08-30T01:47:08;20.60;;;14.30;;
43771;SDS011;59066;54.782;32.024;2023-08-30T01:49:35;20.60;;;16.10;;
43771;SDS011;59066;54.782;32.024;2023-08-30T01:52:05;21.90;;;15.30;;
43771;SDS011;59066;54.782;32.024;2023-08-30T01:54:34;21.65;;;17.00;;
43771;SDS011;59066;54.782;32.024;2023-08-30T01:57:01;21.40;;;17.15;;
43771;SDS011;59066;54.782;32.024;2023-08-30T01:59:29;24.60;;;18.80;;
43771;SDS011;59066;54.782;32.024;2023-08-30T02:01:57;24.05;;;18.30;;
43771;SDS011;59066;54.782;32.024;2023-08-30T02:04:24;27.52;;;18.88;;
43771;SDS011;59066;54.782;32.024;2023-08-30T02:06:57;26.52;;;19.90;;
43771;SDS011;59066;54.782;32.024;2023-08-30T02:12:22;29.73;;;20.98;;
43771;SDS011;59066;54.782;32.024;2023-08-30T02:14:52;31.58;;;21.98;;
43771;SDS011;59066;54.782;32.024;2023-08-30T02:17:20;28.13;;;21.65;;
43771;SDS011;59066;54.782;32.024;2023-08-30T02:19:48;30.23;;;21.08;;
43771;SDS011;59066;54.782;32.024;2023-08-30T02:22:20;25.08;;;19.88;;
43771;SDS011;59066;54.782;32.024;2023-08-30T02:24:47;26.42;;;20.02;;
43771;SDS011;59066;54.782;32.024;2023-08-30T02:27:14;24.98;;;19.33;;
43771;SDS011;59066;54.782;32.024;2023-08-30T02:29:42;33.53;;;21.15;;
43771;SDS011;59066;54.782;32.024;2023-08-30T02:32:09;31.48;;;22.45;;
43771;SDS011;59066;54.782;32.024;2023-08-30T02:34:36;30.27;;;22.05;;
43771;SDS011;59066;54.782;32.024;2023-08-30T02:37:04;30.23;;;22.02;;
43771;SDS011;59066;54.782;32.024;2023-08-30T02:39:32;31.25;;;22.55;;
43771;SDS011;59066;54.782;32.024;2023-08-30T02:41:59;33.97;;;22.15;;
43771;SDS011;59066;54.782;32.024;2023-08-30T02:44:27;31.23;;;23.88;;
43771;SDS011;59066;54.782;32.024;2023-08-30T02:46:54;31.10;;;23.05;;
43771;SDS011;59066;54.782;32.024;2023-08-30T02:49:21;31.95;;;24.33;;
43771;SDS011;59066;54.782;32.024;2023-08-30T02:51:49;34.92;;;22.63;;
43771;SDS011;59066;54.782;32.024;2023-08-30T02:54:17;33.05;;;24.15;;
43771;SDS011;59066;54.782;32.024;2023-08-30T02:56:45;33.35;;;22.85;;
43771;SDS011;59066;54.782;32.024;2023-08-30T02:59:12;37.35;;;25.52;;
43771;SDS011;59066;54.782;32.024;2023-08-30T03:01:39;32.30;;;22.95;;
43771;SDS011;59066;54.782;32.024;2023-08-30T03:04:09;32.63;;;22.73;;
43771;SDS011;59066;54.782;32.024;2023-08-30T03:06:36;33.83;;;23.58;;
43771;SDS011;59066;54.782;32.024;2023-08-30T03:09:04;41.53;;;25.27;;
43771;SDS011;59066;54.782;32.024;2023-08-30T03:11:35;33.78;;;23.27;;
43771;SDS011;59066;54.782;32.024;2023-08-30T03:14:03;37.40;;;23.80;;
43771;SDS011;59066;54.782;32.024;2023-08-30T03:16:31;39.53;;;25.45;;
43771;SDS011;59066;54.782;32.024;2023-08-30T03:18:58;40.47;;;23.40;;
43771;SDS011;59066;54.782;32.024;2023-08-30T03:21:25;33.85;;;21.83;;
43771;SDS011;59066;54.782;32.024;2023-08-30T03:23:53;34.25;;;22.23;;
43771;SDS011;59066;54.782;32.024;2023-08-30T03:26:20;34.38;;;22.73;;
43771;SDS011;59066;54.782;32.024;2023-08-30T03:28:48;36.08;;;23.98;;
43771;SDS011;59066;54.782;32.024;2023-08-30T03:31:19;35.97;;;23.75;;
43771;SDS011;59066;54.782;32.024;2023-08-30T03:33:49;39.92;;;24.60;;
43771;SDS011;59066;54.782;32.024;2023-08-30T03:36:16;34.60;;;21.92;;
43771;SDS011;59066;54.782;32.024;2023-08-30T03:38:44;33.03;;;22.52;;
43771;SDS011;59066;54.782;32.024;2023-08-30T03:41:14;29.20;;;20.60;;
43771;SDS011;59066;54.782;32.024;2023-08-30T03:43:43;35.08;;;21.55;;
43771;SDS011;59066;54.782;32.024;2023-08-30T03:46:11;25.70;;;19.02;;
43771;SDS011;59066;54.782;32.024;2023-08-30T03:48:38;24.58;;;18.90;;
43771;SDS011;59066;54.782;32.024;2023-08-30T03:51:06;26.45;;;19.27;;
43771;SDS011;59066;54.782;32.024;2023-08-30T03:53:34;27.00;;;20.88;;
43771;SDS011;59066;54.782;32.024;2023-08-30T03:56:01;27.33;;;20.58;;
43771;SDS011;59066;54.782;32.024;2023-08-30T03:58:31;30.80;;;23.00;;
43771;SDS011;59066;54.782;32.024;2023-08-30T04:00:58;32.63;;;22.80;;
43771;SDS011;59066;54.782;32.024;2023-08-30T04:03:26;33.70;;;23.40;;
43771;SDS011;59066;54.782;32.024;2023-08-30T04:05:56;30.67;;;22.70;;
43771;SDS011;59066;54.782;32.024;2023-08-30T04:08:24;36.97;;;24.00;;
43771;SDS011;59066;54.782;32.024;2023-08-30T04:10:52;36.20;;;25.10;;
43771;SDS011;59066;54.782;32.024;2023-08-30T04:13:20;33.38;;;24.73;;
43771;SDS011;59066;54.782;32.024;2023-08-30T04:15:48;35.15;;;25.60;;
43771;SDS011;59066;54.782;32.024;2023-08-30T04:18:16;34.97;;;24.58;;
43771;SDS011;59066;54.782;32.024;2023-08-30T04:20:47;35.38;;;25.05;;
43771;SDS011;59066;54.782;32.024;2023-08-30T04:23:14;33.03;;;24.45;;
43771;SDS011;59066;54.782;32.024;2023-08-30T04:25:43;33.90;;;28.08;;
43771;SDS011;59066;54.782;32.024;2023-08-30T04:28:11;37.10;;;27.40;;
43771;SDS011;59066;54.782;32.024;2023-08-30T04:30:39;31.95;;;23.90;;
43771;SDS011;59066;54.782;32.024;2023-08-30T04:33:07;31.30;;;22.80;;
43771;SDS011;59066;54.782;32.024;2023-08-30T04:35:37;34.85;;;25.23;;
43771;SDS011;59066;54.782;32.024;2023-08-30T04:38:05;32.08;;;23.98;;
43771;SDS011;59066;54.782;32.024;2023-08-30T04:40:33;35.67;;;23.88;;
43771;SDS011;59066;54.782;32.024;2023-08-30T04:43:03;30.50;;;24.63;;
43771;SDS011;59066;54.782;32.024;2023-08-30T04:45:30;34.00;;;24.70;;
43771;SDS011;59066;54.782;32.024;2023-08-30T04:47:58;37.53;;;25.48;;
43771;SDS011;59066;54.782;32.024;2023-08-30T04:50:26;35.20;;;24.38;;
43771;SDS011;59066;54.782;32.024;2023-08-30T04:52:54;34.38;;;24.52;;
43771;SDS011;59066;54.782;32.024;2023-08-30T04:55:27;33.97;;;26.05;;
43771;SDS011;59066;54.782;32.024;2023-08-30T04:57:58;32.53;;;26.10;;
43771;SDS011;59066;54.782;32.024;2023-08-30T05:00:30;34.78;;;26.33;;
43771;SDS011;59066;54.782;32.024;2023-08-30T05:02:58;34.00;;;26.30;;
43771;SDS011;59066;54.782;32.024;2023-08-30T05:05:26;31.35;;;24.70;;
43771;SDS011;59066;54.782;32.024;2023-08-30T05:07:56;31.92;;;24.42;;
43771;SDS011;59066;54.782;32.024;2023-08-30T05:10:25;29.63;;;24.02;;
43771;SDS011;59066;54.782;32.024;2023-08-30T05:12:53;29.25;;;23.75;;
43771;SDS011;59066;54.782;32.024;2023-08-30T05:15:20;31.83;;;24.63;;
43771;SDS011;59066;54.782;32.024;2023-08-30T05:17:48;29.40;;;21.55;;
43771;SDS011;59066;54.782;32.024;2023-08-30T05:20:16;27.88;;;21.90;;
43771;SDS011;59066;54.782;32.024;2023-08-30T05:22:43;32.45;;;26.73;;
43771;SDS011;59066;54.782;32.024;2023-08-30T05:25:11;30.63;;;25.65;;
43771;SDS011;59066;54.782;32.024;2023-08-30T05:27:38;28.38;;;21.35;;
43771;SDS011;59066;54.782;32.024;2023-08-30T05:30:06;26.60;;;21.13;;
43771;SDS011;59066;54.782;32.024;2023-08-30T05:32:34;24.85;;;19.10;;
43771;SDS011;59066;54.782;32.024;2023-08-30T05:35:40;24.38;;;19.17;;
43771;SDS011;59066;54.782;32.024;2023-08-30T05:38:30;23.08;;;20.30;;
43771;SDS011;59066;54.782;32.024;2023-08-30T05:41:07;24.67;;;20.30;;
43771;SDS011;59066;54.782;32.024;2023-08-30T05:43:34;25.20;;;20.27;;
43771;SDS011;59066;54.782;32.024;2023-08-30T05:46:04;25.00;;;20.42;;
43771;SDS011;59066;54.782;32.024;2023-08-30T05:48:33;35.53;;;20.95;;
43771;SDS011;59066;54.782;32.024;2023-08-30T05:51:01;23.80;;;18.25;;
43771;SDS011;59066;54.782;32.024;2023-08-30T05:53:29;27.13;;;21.20;;
43771;SDS011;59066;54.782;32.024;2023-08-30T05:55:57;23.02;;;19.95;;
43771;SDS011;59066;54.782;32.024;2023-08-30T05:58:24;27.60;;;20.52;;
43771;SDS011;59066;54.782;32.024;2023-08-30T06:00:52;23.80;;;19.05;;
43771;SDS011;59066;54.782;32.024;2023-08-30T06:03:19;23.27;;;18.98;;
43771;SDS011;59066;54.782;32.024;2023-08-30T06:05:47;24.40;;;18.85;;
43771;SDS011;59066;54.782;32.024;2023-08-30T06:08:15;22.75;;;18.27;;
43771;SDS011;59066;54.782;32.024;2023-08-30T06:10:44;25.02;;;19.48;;
43771;SDS011;59066;54.782;32.024;2023-08-30T06:13:12;23.60;;;18.02;;
43771;SDS011;59066;54.782;32.024;2023-08-30T06:15:39;21.20;;;18.35;;
43771;SDS011;59066;54.782;32.024;2023-08-30T06:18:07;24.13;;;17.55;;
43771;SDS011;59066;54.782;32.024;2023-08-30T06:20:34;21.92;;;18.02;;
43771;SDS011;59066;54.782;32.024;2023-08-30T06:23:02;23.25;;;18.02;;
43771;SDS011;59066;54.782;32.024;2023-08-30T06:25:30;19.65;;;16.08;;
43771;SDS011;59066;54.782;32.024;2023-08-30T06:27:58;25.90;;;17.98;;
43771;SDS011;59066;54.782;32.024;2023-08-30T06:30:28;26.42;;;16.80;;
43771;SDS011;59066;54.782;32.024;2023-08-30T06:32:56;20.80;;;16.40;;
43771;SDS011;59066;54.782;32.024;2023-08-30T06:35:25;20.67;;;17.50;;
43771;SDS011;59066;54.782;32.024;2023-08-30T06:37:52;22.58;;;16.67;;
43771;SDS011;59066;54.782;32.024;2023-08-30T06:40:20;26.20;;;17.48;;
43771;SDS011;59066;54.782;32.024;2023-08-30T06:42:47;30.35;;;18.48;;
43771;SDS011;59066;54.782;32.024;2023-08-30T06:45:15;22.55;;;16.33;;
43771;SDS011;59066;54.782;32.024;2023-08-30T06:47:43;22.42;;;15.93;;
43771;SDS011;59066;54.782;32.024;2023-08-30T06:50:10;19.70;;;16.45;;
43771;SDS011;59066;54.782;32.024;2023-08-30T06:52:38;30.30;;;18.23;;
43771;SDS011;59066;54.782;32.024;2023-08-30T06:55:05;21.80;;;17.08;;
43771;SDS011;59066;54.782;32.024;2023-08-30T06:57:33;20.48;;;15.73;;
43771;SDS011;59066;54.782;32.024;2023-08-30T07:00:01;19.85;;;15.27;;
43771;SDS011;59066;54.782;32.024;2023-08-30T07:02:37;27.20;;;16.80;;
43771;SDS011;59066;54.782;32.024;2023-08-30T07:05:05;32.95;;;15.27;;
43771;SDS011;59066;54.782;32.024;2023-08-30T07:07:33;21.60;;;14.10;;
43771;SDS011;59066;54.782;32.024;2023-08-30T07:10:00;21.98;;;14.93;;
43771;SDS011;59066;54.782;32.024;2023-08-30T07:12:28;28.73;;;15.55;;
43771;SDS011;59066;54.782;32.024;2023-08-30T07:14:55;23.45;;;14.82;;
43771;SDS011;59066;54.782;32.024;2023-08-30T07:17:23;18.88;;;13.23;;
43771;SDS011;59066;54.782;32.024;2023-08-30T07:19:54;20.02;;;14.32;;
43771;SDS011;59066;54.782;32.024;2023-08-30T07:22:21;21.35;;;15.02;;
43771;SDS011;59066;54.782;32.024;2023-08-30T07:24:49;16.85;;;13.20;;
43771;SDS011;59066;54.782;32.024;2023-08-30T07:27:16;16.77;;;13.40;;
43771;SDS011;59066;54.782;32.024;2023-08-30T07:29:44;17.80;;;13.05;;
43771;SDS011;59066;54.782;32.024;2023-08-30T07:32:11;18.35;;;12.57;;
43771;SDS011;59066;54.782;32.024;2023-08-30T07:34:39;19.77;;;13.77;;
43771;SDS011;59066;54.782;32.024;2023-08-30T07:37:16;19.58;;;14.32;;
43771;SDS011;59066;54.782;32.024;2023-08-30T07:39:45;18.48;;;14.10;;
43771;SDS011;59066;54.782;32.024;2023-08-30T07:42:13;20.08;;;13.70;;
43771;SDS011;59066;54.782;32.024;2023-08-30T07:44:43;20.02;;;14.93;;
43771;SDS011;59066;54.782;32.024;2023-08-30T07:47:11;20.70;;;12.85;;
43771;SDS011;59066;54.782;32.024;2023-08-30T07:49:38;19.42;;;13.45;;
43771;SDS011;59066;54.782;32.024;2023-08-30T07:52:06;16.63;;;11.82;;
43771;SDS011;59066;54.782;32.024;2023-08-30T07:54:37;15.50;;;11.73;;
43771;SDS011;59066;54.782;32.024;2023-08-30T07:57:06;19.85;;;13.18;;
43771;SDS011;59066;54.782;32.024;2023-08-30T07:59:35;21.95;;;12.77;;
43771;SDS011;59066;54.782;32.024;2023-08-30T08:02:04;19.58;;;12.65;;
43771;SDS011;59066;54.782;32.024;2023-08-30T08:04:34;17.10;;;13.07;;
43771;SDS011;59066;54.782;32.024;2023-08-30T08:07:02;18.55;;;12.02;;
43771;SDS011;59066;54.782;32.024;2023-08-30T08:09:31;15.57;;;11.02;;
43771;SDS011;59066;54.782;32.024;2023-08-30T08:11:59;20.67;;;12.65;;
43771;SDS011;59066;54.782;32.024;2023-08-30T08:14:26;19.77;;;12.77;;
43771;SDS011;59066;54.782;32.024;2023-08-30T08:16:54;16.30;;;11.05;;
43771;SDS011;59066;54.782;32.024;2023-08-30T08:19:22;12.50;;;10.80;;
43771;SDS011;59066;54.782;32.024;2023-08-30T08:21:51;13.18;;;10.60;;
43771;SDS011;59066;54.782;32.024;2023-08-30T08:24:20;18.35;;;12.43;;
43771;SDS011;59066;54.782;32.024;2023-08-30T08:26:48;12.40;;;9.90;;
43771;SDS011;59066;54.782;32.024;2023-08-30T08:29:15;13.52;;;10.27;;
43771;SDS011;59066;54.782;32.024;2023-08-30T08:31:43;13.20;;;10.27;;
43771;SDS011;59066;54.782;32.024;2023-08-30T08:34:12;13.18;;;10.25;;
43771;SDS011;59066;54.782;32.024;2023-08-30T08:36:40;11.73;;;9.82;;
43771;SDS011;59066;54.782;32.024;2023-08-30T08:39:09;14.98;;;10.35;;
43771;SDS011;59066;54.782;32.024;2023-08-30T08:41:41;14.77;;;10.98;;
43771;SDS011;59066;54.782;32.024;2023-08-30T08:44:10;15.75;;;11.25;;
43771;SDS011;59066;54.782;32.024;2023-08-30T08:46:39;14.43;;;10.77;;
43771;SDS011;59066;54.782;32.024;2023-08-30T08:49:09;18.65;;;11.45;;
43771;SDS011;59066;54.782;32.024;2023-08-30T08:51:41;13.70;;;9.90;;
43771;SDS011;59066;54.782;32.024;2023-08-30T08:54:10;12.45;;;9.90;;
43771;SDS011;59066;54.782;32.024;2023-08-30T08:56:39;14.77;;;10.95;;
43771;SDS011;59066;54.782;32.024;2023-08-30T08:59:07;23.52;;;14.23;;
43771;SDS011;59066;54.782;32.024;2023-08-30T09:01:36;16.65;;;10.38;;
43771;SDS011;59066;54.782;32.024;2023-08-30T09:04:07;15.23;;;10.60;;
43771;SDS011;59066;54.782;32.024;2023-08-30T09:06:36;13.02;;;10.32;;
43771;SDS011;59066;54.782;32.024;2023-08-30T09:09:07;15.80;;;11.00;;
43771;SDS011;59066;54.782;32.024;2023-08-30T09:11:36;23.15;;;10.65;;
43771;SDS011;59066;54.782;32.024;2023-08-30T09:14:16;15.10;;;9.55;;
43771;SDS011;59066;54.782;32.024;2023-08-30T09:16:57;12.07;;;10.52;;
43771;SDS011;59066;54.782;32.024;2023-08-30T09:19:25;15.50;;;10.88;;
43771;SDS011;59066;54.782;32.024;2023-08-30T09:21:57;11.73;;;9.50;;
43771;SDS011;59066;54.782;32.024;2023-08-30T09:24:36;15.68;;;11.45;;
43771;SDS011;59066;54.782;32.024;2023-08-30T09:27:05;16.92;;;11.27;;
43771;SDS011;59066;54.782;32.024;2023-08-30T09:29:33;13.13;;;10.10;;
43771;SDS011;59066;54.782;32.024;2023-08-30T09:32:01;17.83;;;10.30;;
43771;SDS011;59066;54.782;32.024;2023-08-30T09:34:28;11.18;;;9.57;;
43771;SDS011;59066;54.782;32.024;2023-08-30T09:36:56;14.13;;;11.40;;
43771;SDS011;59066;54.782;32.024;2023-08-30T09:39:26;13.85;;;10.32;;
43771;SDS011;59066;54.782;32.024;2023-08-30T09:41:53;24.13;;;10.75;;
43771;SDS011;59066;54.782;32.024;2023-08-30T09:44:21;17.58;;;9.07;;
43771;SDS011;59066;54.782;32.024;2023-08-30T09:46:49;12.27;;;9.05;;
43771;SDS011;59066;54.782;32.024;2023-08-30T09:49:20;15.13;;;10.65;;
43771;SDS011;59066;54.782;32.024;2023-08-30T09:51:49;12.60;;;9.88;;
43771;SDS011;59066;54.782;32.024;2023-08-30T09:54:23;18.05;;;9.32;;
43771;SDS011;59066;54.782;32.024;2023-08-30T09:56:54;13.30;;;9.52;;
43771;SDS011;59066;54.782;32.024;2023-08-30T09:59:24;12.75;;;8.90;;
43771;SDS011;59066;54.782;32.024;2023-08-30T10:01:52;16.20;;;10.18;;
43771;SDS011;59066;54.782;32.024;2023-08-30T10:04:22;12.57;;;9.32;;
43771;SDS011;59066;54.782;32.024;2023-08-30T10:06:51;12.05;;;9.63;;
43771;SDS011;59066;54.782;32.024;2023-08-30T10:09:20;12.75;;;9.90;;
43771;SDS011;59066;54.782;32.024;2023-08-30T10:11:48;12.05;;;9.73;;
43771;SDS011;59066;54.782;32.024;2023-08-30T10:14:16;15.43;;;8.90;;
43771;SDS011;59066;54.782;32.024;2023-08-30T10:16:44;14.75;;;10.43;;
43771;SDS011;59066;54.782;32.024;2023-08-30T10:21:43;17.88;;;9.65;;
43771;SDS011;59066;54.782;32.024;2023-08-30T10:24:12;13.23;;;9.63;;
43771;SDS011;59066;54.782;32.024;2023-08-30T10:26:56;13.73;;;9.52;;
43771;SDS011;59066;54.782;32.024;2023-08-30T10:29:25;12.57;;;10.55;;
43771;SDS011;59066;54.782;32.024;2023-08-30T10:31:54;13.20;;;10.48;;
43771;SDS011;59066;54.782;32.024;2023-08-30T10:34:22;10.95;;;8.57;;
43771;SDS011;59066;54.782;32.024;2023-08-30T10:36:56;13.68;;;9.50;;
43771;SDS011;59066;54.782;32.024;2023-08-30T10:39:35;15.40;;;8.43;;
43771;SDS011;59066;54.782;32.024;2023-08-30T10:42:13;9.27;;;7.60;;
43771;SDS011;59066;54.782;32.024;2023-08-30T10:44:47;11.98;;;7.75;;
43771;SDS011;59066;54.782;32.024;2023-08-30T10:47:24;10.43;;;8.13;;
43771;SDS011;59066;54.782;32.024;2023-08-30T10:49:58;9.30;;;7.88;;
43771;SDS011;59066;54.782;32.024;2023-08-30T10:52:27;9.00;;;7.95;;
43771;SDS011;59066;54.782;32.024;2023-08-30T10:55:04;11.23;;;8.30;;
43771;SDS011;59066;54.782;32.024;2023-08-30T10:57:36;15.95;;;8.63;;
43771;SDS011;59066;54.782;32.024;2023-08-30T11:00:09;11.05;;;8.57;;
43771;SDS011;59066;54.782;32.024;2023-08-30T11:02:50;11.77;;;7.80;;
43771;SDS011;59066;54.782;32.024;2023-08-30T11:05:20;10.40;;;7.72;;
43771;SDS011;59066;54.782;32.024;2023-08-30T11:07:52;10.93;;;7.40;;
43771;SDS011;59066;54.782;32.024;2023-08-30T11:10:20;16.20;;;8.30;;
43771;SDS011;59066;54.782;32.024;2023-08-30T11:12:48;13.20;;;7.75;;
43771;SDS011;59066;54.782;32.024;2023-08-30T11:15:17;8.35;;;6.57;;
43771;SDS011;59066;54.782;32.024;2023-08-30T11:17:45;12.15;;;8.70;;
43771;SDS011;59066;54.782;32.024;2023-08-30T11:20:13;15.02;;;9.65;;
43771;SDS011;59066;54.782;32.024;2023-08-30T11:22:44;11.10;;;7.20;;
43771;SDS011;59066;54.782;32.024;2023-08-30T11:25:14;10.95;;;7.68;;
43771;SDS011;59066;54.782;32.024;2023-08-30T11:27:43;8.80;;;6.50;;
43771;SDS011;59066;54.782;32.024;2023-08-30T11:30:11;9.45;;;6.55;;
43771;SDS011;59066;54.782;32.024;2023-08-30T11:32:39;14.52;;;7.15;;
43771;SDS011;59066;54.782;32.024;2023-08-30T11:35:10;11.18;;;7.25;;
43771;SDS011;59066;54.782;32.024;2023-08-30T11:37:37;11.65;;;6.82;;
43771;SDS011;59066;54.782;32.024;2023-08-30T11:40:07;14.65;;;8.40;;
43771;SDS011;59066;54.782;32.024;2023-08-30T11:42:35;12.43;;;8.07;;
43771;SDS011;59066;54.782;32.024;2023-08-30T11:45:03;7.82;;;6.50;;
43771;SDS011;59066;54.782;32.024;2023-08-30T11:47:31;13.68;;;7.32;;
43771;SDS011;59066;54.782;32.024;2023-08-30T11:49:59;6.85;;;6.05;;
43771;SDS011;59066;54.782;32.024;2023-08-30T11:52:27;7.90;;;6.85;;
43771;SDS011;59066;54.782;32.024;2023-08-30T11:54:55;10.43;;;6.60;;
43771;SDS011;59066;54.782;32.024;2023-08-30T11:57:23;12.48;;;7.00;;
43771;SDS011;59066;54.782;32.024;2023-08-30T11:59:50;11.73;;;6.03;;
43771;SDS011;59066;54.782;32.024;2023-08-30T12:02:17;10.05;;;6.38;;
43771;SDS011;59066;54.782;32.024;2023-08-30T12:04:46;8.95;;;7.68;;
43771;SDS011;59066;54.782;32.024;2023-08-30T12:07:21;9.57;;;6.43;;
43771;SDS011;59066;54.782;32.024;2023-08-30T12:09:50;9.20;;;6.22;;
43771;SDS011;59066;54.782;32.024;2023-08-30T12:12:17;17.90;;;8.57;;
43771;SDS011;59066;54.782;32.024;2023-08-30T12:14:45;10.18;;;7.72;;
43771;SDS011;59066;54.782;32.024;2023-08-30T12:17:21;8.45;;;6.30;;
43771;SDS011;59066;54.782;32.024;2023-08-30T12:19:55;9.07;;;6.15;;
43771;SDS011;59066;54.782;32.024;2023-08-30T12:22:36;23.42;;;8.10;;
43771;SDS011;59066;54.782;32.024;2023-08-30T12:25:20;10.50;;;6.35;;
43771;SDS011;59066;54.782;32.024;2023-08-30T12:27:50;11.00;;;6.72;;
43771;SDS011;59066;54.782;32.024;2023-08-30T12:30:18;15.02;;;6.68;;
43771;SDS011;59066;54.782;32.024;2023-08-30T12:32:45;7.95;;;5.47;;
43771;SDS011;59066;54.782;32.024;2023-08-30T12:35:13;12.07;;;6.63;;
43771;SDS011;59066;54.782;32.024;2023-08-30T12:37:41;20.63;;;12.98;;
43771;SDS011;59066;54.782;32.024;2023-08-30T12:40:09;21.48;;;7.13;;
43771;SDS011;59066;54.782;32.024;2023-08-30T12:42:37;8.15;;;5.57;;
43771;SDS011;59066;54.782;32.024;2023-08-30T12:45:05;11.57;;;6.00;;
43771;SDS011;59066;54.782;32.024;2023-08-30T12:47:34;8.70;;;5.53;;
43771;SDS011;59066;54.782;32.024;2023-08-30T12:50:02;14.18;;;6.15;;
43771;SDS011;59066;54.782;32.024;2023-08-30T12:52:30;10.90;;;6.50;;
43771;SDS011;59066;54.782;32.024;2023-08-30T12:54:57;10.35;;;6.75;;
43771;SDS011;59066;54.782;32.024;2023-08-30T12:57:25;16.40;;;8.32;;
43771;SDS011;59066;54.782;32.024;2023-08-30T12:59:53;10.73;;;6.15;;
43771;SDS011;59066;54.782;32.024;2023-08-30T13:02:20;9.55;;;6.03;;
43771;SDS011;59066;54.782;32.024;2023-08-30T13:04:48;11.70;;;6.10;;
43771;SDS011;59066;54.782;32.024;2023-08-30T13:07:15;10.00;;;7.45;;
43771;SDS011;59066;54.782;32.024;2023-08-30T13:09:43;6.50;;;5.25;;
43771;SDS011;59066;54.782;32.024;2023-08-30T13:12:10;14.07;;;7.00;;
43771;SDS011;59066;54.782;32.024;2023-08-30T13:14:38;12.88;;;6.32;;
43771;SDS011;59066;54.782;32.024;2023-08-30T13:17:05;11.13;;;5.80;;
43771;SDS011;59066;54.782;32.024;2023-08-30T13:19:33;13.23;;;7.00;;
43771;SDS011;59066;54.782;32.024;2023-08-30T13:22:01;7.07;;;5.45;;
43771;SDS011;59066;54.782;32.024;2023-08-30T13:24:29;12.00;;;6.68;;
43771;SDS011;59066;54.782;32.024;2023-08-30T13:26:59;13.40;;;5.30;;
43771;SDS011;59066;54.782;32.024;2023-08-30T13:29:26;6.90;;;5.00;;
43771;SDS011;59066;54.782;32.024;2023-08-30T13:31:54;8.02;;;5.28;;
43771;SDS011;59066;54.782;32.024;2023-08-30T13:34:23;10.13;;;5.60;;
43771;SDS011;59066;54.782;32.024;2023-08-30T13:36:51;8.10;;;5.13;;
43771;SDS011;59066;54.782;32.024;2023-08-30T13:39:19;6.88;;;4.95;;
43771;SDS011;59066;54.782;32.024;2023-08-30T13:41:49;9.75;;;6.07;;
43771;SDS011;59066;54.782;32.024;2023-08-30T13:44:16;7.45;;;5.80;;
43771;SDS011;59066;54.782;32.024;2023-08-30T13:46:44;8.65;;;5.75;;
43771;SDS011;59066;54.782;32.024;2023-08-30T13:49:15;5.97;;;5.03;;
43771;SDS011;59066;54.782;32.024;2023-08-30T13:51:43;10.65;;;5.75;;
43771;SDS011;59066;54.782;32.024;2023-08-30T13:54:11;11.57;;;6.65;;
43771;SDS011;59066;54.782;32.024;2023-08-30T13:56:39;9.73;;;5.75;;
43771;SDS011;59066;54.782;32.024;2023-08-30T13:59:06;12.20;;;6.10;;
43771;SDS011;59066;54.782;32.024;2023-08-30T14:01:34;6.93;;;5.40;;
43771;SDS011;59066;54.782;32.024;2023-08-30T14:04:04;10.77;;;5.40;;
43771;SDS011;59066;54.782;32.024;2023-08-30T14:06:32;7.40;;;5.28;;
43771;SDS011;59066;54.782;32.024;2023-08-30T14:09:00;8.98;;;6.03;;
43771;SDS011;59066;54.782;32.024;2023-08-30T14:11:27;7.40;;;5.70;;
43771;SDS011;59066;54.782;32.024;2023-08-30T14:13:55;10.27;;;5.13;;
43771;SDS011;59066;54.782;32.024;2023-08-30T14:16:23;9.82;;;5.60;;
43771;SDS011;59066;54.782;32.024;2023-08-30T14:18:50;8.70;;;5.50;;
43771;SDS011;59066;54.782;32.024;2023-08-30T14:21:18;7.70;;;5.18;;
43771;SDS011;59066;54.782;32.024;2023-08-30T14:23:45;13.80;;;6.63;;
43771;SDS011;59066;54.782;32.024;2023-08-30T14:26:13;9.52;;;5.28;;
43771;SDS011;59066;54.782;32.024;2023-08-30T14:28:41;9.77;;;5.18;;
43771;SDS011;59066;54.782;32.024;2023-08-30T14:31:09;10.02;;;7.47;;
43771;SDS011;59066;54.782;32.024;2023-08-30T14:33:37;15.55;;;6.50;;
43771;SDS011;59066;54.782;32.024;2023-08-30T14:36:08;8.88;;;5.40;;